sensor_id;sensor_type;location;lat;lon;timestamp;pressure;altitude;pressure_sealevel;temperature
76898;BMP180;65856;52.178;21.176;2023-07-13T00:02:17;100156.00;;;20.74
76898;BMP180;65856;52.178;21.176;2023-07-13T00:04:43;100154.80;;;20.70
76898;BMP180;65856;52.178;21.176;2023-07-13T00:07:08;100152.20;;;20.70
76898;BMP180;65856;52.178;21.176;2023-07-13T00:09:35;100147.00;;;20.60
76898;BMP180;65856;52.178;21.176;2023-07-13T00:12:01;100144.20;;;20.60
76898;BMP180;65856;52.178;21.176;2023-07-13T00:14:29;100141.60;;;20.60
76898;BMP180;65856;52.178;21.176;2023-07-13T00:16:55;100140.00;;;20.60
76898;BMP180;65856;52.178;21.176;2023-07-13T00:19:21;100142.60;;;20.60
76898;BMP180;65856;52.178;21.176;2023-07-13T00:21:47;100140.40;;;20.50
76898;BMP180;65856;52.178;21.176;2023-07-13T00:24:16;100139.80;;;20.50
76898;BMP180;65856;52.178;21.176;2023-07-13T00:26:48;100141.00;;;20.50
76898;BMP180;65856;52.178;21.176;2023-07-13T00:29:14;100129.60;;;20.42
76898;BMP180;65856;52.178;21.176;2023-07-13T00:31:39;100129.20;;;20.34
76898;BMP180;65856;52.178;21.176;2023-07-13T00:34:05;100129.00;;;20.30
76898;BMP180;65856;52.178;21.176;2023-07-13T00:36:31;100127.60;;;20.30
76898;BMP180;65856;52.178;21.176;2023-07-13T00:38:57;100131.20;;;20.30
76898;BMP180;65856;52.178;21.176;2023-07-13T00:41:23;100126.60;;;20.30
76898;BMP180;65856;52.178;21.176;2023-07-13T00:43:48;100126.40;;;20.30
76898;BMP180;65856;52.178;21.176;2023-07-13T00:46:29;100120.80;;;20.30
76898;BMP180;65856;52.178;21.176;2023-07-13T00:49:01;100116.00;;;20.30
76898;BMP180;65856;52.178;21.176;2023-07-13T00:51:39;100120.60;;;20.30
76898;BMP180;65856;52.178;21.176;2023-07-13T00:54:26;100123.80;;;20.30
76898;BMP180;65856;52.178;21.176;2023-07-13T00:56:58;100127.60;;;20.30
76898;BMP180;65856;52.178;21.176;2023-07-13T00:59:26;100132.60;;;20.30
76898;BMP180;65856;52.178;21.176;2023-07-13T01:01:51;100134.20;;;20.30
76898;BMP180;65856;52.178;21.176;2023-07-13T01:04:18;100130.20;;;20.30
76898;BMP180;65856;52.178;21.176;2023-07-13T01:06:45;100132.40;;;20.30
76898;BMP180;65856;52.178;21.176;2023-07-13T01:09:13;100133.40;;;20.30
76898;BMP180;65856;52.178;21.176;2023-07-13T01:11:40;100133.60;;;20.30
76898;BMP180;65856;52.178;21.176;2023-07-13T01:14:07;100142.60;;;20.30
76898;BMP180;65856;52.178;21.176;2023-07-13T01:16:35;100138.00;;;20.20
76898;BMP180;65856;52.178;21.176;2023-07-13T01:19:35;100143.80;;;20.20
76898;BMP180;65856;52.178;21.176;2023-07-13T01:22:06;100138.00;;;20.20
76898;BMP180;65856;52.178;21.176;2023-07-13T01:24:36;100141.80;;;20.20
76898;BMP180;65856;52.178;21.176;2023-07-13T01:27:03;100141.40;;;20.20
76898;BMP180;65856;52.178;21.176;2023-07-13T01:29:34;100130.40;;;20.20
76898;BMP180;65856;52.178;21.176;2023-07-13T01:32:01;100139.80;;;20.20
76898;BMP180;65856;52.178;21.176;2023-07-13T01:34:27;100147.40;;;20.20
76898;BMP180;65856;52.178;21.176;2023-07-13T01:36:53;100154.00;;;20.20
76898;BMP180;65856;52.178;21.176;2023-07-13T01:39:21;100153.40;;;20.10
76898;BMP180;65856;52.178;21.176;2023-07-13T01:41:48;100160.00;;;20.00
76898;BMP180;65856;52.178;21.176;2023-07-13T01:44:13;100160.60;;;20.00
76898;BMP180;65856;52.178;21.176;2023-07-13T01:46:39;100168.40;;;19.92
76898;BMP180;65856;52.178;21.176;2023-07-13T01:49:05;100175.00;;;20.00
76898;BMP180;65856;52.178;21.176;2023-07-13T01:51:30;100169.40;;;20.00
76898;BMP180;65856;52.178;21.176;2023-07-13T01:53:56;100161.60;;;20.08
76898;BMP180;65856;52.178;21.176;2023-07-13T01:56:21;100163.20;;;20.10
76898;BMP180;65856;52.178;21.176;2023-07-13T01:58:47;100165.80;;;20.10
76898;BMP180;65856;52.178;21.176;2023-07-13T02:01:12;100163.00;;;20.10
76898;BMP180;65856;52.178;21.176;2023-07-13T02:03:38;100155.80;;;20.10
76898;BMP180;65856;52.178;21.176;2023-07-13T02:06:04;100155.60;;;20.10
76898;BMP180;65856;52.178;21.176;2023-07-13T02:08:31;100151.80;;;20.10
76898;BMP180;65856;52.178;21.176;2023-07-13T02:10:57;100155.40;;;20.18
76898;BMP180;65856;52.178;21.176;2023-07-13T02:13:23;100159.80;;;20.20
76898;BMP180;65856;52.178;21.176;2023-07-13T02:15:52;100163.20;;;20.20
76898;BMP180;65856;52.178;21.176;2023-07-13T02:18:17;100166.40;;;20.20
76898;BMP180;65856;52.178;21.176;2023-07-13T02:20:44;100174.60;;;20.20
76898;BMP180;65856;52.178;21.176;2023-07-13T02:23:10;100181.80;;;20.20
76898;BMP180;65856;52.178;21.176;2023-07-13T02:25:36;100180.80;;;20.20
76898;BMP180;65856;52.178;21.176;2023-07-13T02:28:02;100180.00;;;20.12
76898;BMP180;65856;52.178;21.176;2023-07-13T02:30:27;100185.60;;;20.18
76898;BMP180;65856;52.178;21.176;2023-07-13T02:32:56;100184.60;;;20.10
76898;BMP180;65856;52.178;21.176;2023-07-13T02:35:22;100179.60;;;20.10
76898;BMP180;65856;52.178;21.176;2023-07-13T02:37:48;100176.60;;;20.10
76898;BMP180;65856;52.178;21.176;2023-07-13T02:40:14;100173.80;;;20.10
76898;BMP180;65856;52.178;21.176;2023-07-13T02:42:40;100173.20;;;20.10
76898;BMP180;65856;52.178;21.176;2023-07-13T02:45:08;100174.20;;;20.10
76898;BMP180;65856;52.178;21.176;2023-07-13T02:47:36;100176.60;;;20.10
76898;BMP180;65856;52.178;21.176;2023-07-13T02:50:02;100175.20;;;20.10
76898;BMP180;65856;52.178;21.176;2023-07-13T02:52:28;100170.00;;;20.10
76898;BMP180;65856;52.178;21.176;2023-07-13T02:54:54;100166.00;;;20.10
76898;BMP180;65856;52.178;21.176;2023-07-13T02:57:20;100165.60;;;20.10
76898;BMP180;65856;52.178;21.176;2023-07-13T02:59:45;100170.00;;;20.10
76898;BMP180;65856;52.178;21.176;2023-07-13T03:02:11;100168.80;;;20.10
76898;BMP180;65856;52.178;21.176;2023-07-13T03:04:37;100170.40;;;20.10
76898;BMP180;65856;52.178;21.176;2023-07-13T03:07:04;100171.60;;;20.00
76898;BMP180;65856;52.178;21.176;2023-07-13T03:09:32;100172.60;;;20.00
76898;BMP180;65856;52.178;21.176;2023-07-13T03:11:58;100172.20;;;20.00
76898;BMP180;65856;52.178;21.176;2023-07-13T03:14:24;100170.40;;;20.00
76898;BMP180;65856;52.178;21.176;2023-07-13T03:16:49;100167.60;;;19.90
76898;BMP180;65856;52.178;21.176;2023-07-13T03:19:15;100164.60;;;19.90
76898;BMP180;65856;52.178;21.176;2023-07-13T03:21:41;100166.00;;;19.90
76898;BMP180;65856;52.178;21.176;2023-07-13T03:24:07;100159.20;;;19.80
76898;BMP180;65856;52.178;21.176;2023-07-13T03:26:32;100166.60;;;19.70
76898;BMP180;65856;52.178;21.176;2023-07-13T03:28:58;100169.00;;;19.70
76898;BMP180;65856;52.178;21.176;2023-07-13T03:31:29;100165.80;;;19.70
76898;BMP180;65856;52.178;21.176;2023-07-13T03:33:59;100169.40;;;19.80
76898;BMP180;65856;52.178;21.176;2023-07-13T03:36:28;100164.40;;;19.80
76898;BMP180;65856;52.178;21.176;2023-07-13T03:38:59;100162.40;;;19.80
76898;BMP180;65856;52.178;21.176;2023-07-13T03:41:26;100160.20;;;19.86
76898;BMP180;65856;52.178;21.176;2023-07-13T03:43:52;100157.40;;;19.94
76898;BMP180;65856;52.178;21.176;2023-07-13T03:46:18;100157.00;;;20.24
76898;BMP180;65856;52.178;21.176;2023-07-13T03:48:46;100152.20;;;20.86
76898;BMP180;65856;52.178;21.176;2023-07-13T03:51:15;100154.60;;;21.64
76898;BMP180;65856;52.178;21.176;2023-07-13T03:53:44;100149.20;;;22.42
76898;BMP180;65856;52.178;21.176;2023-07-13T03:56:12;100150.20;;;23.12
76898;BMP180;65856;52.178;21.176;2023-07-13T03:58:41;100149.80;;;23.56
76898;BMP180;65856;52.178;21.176;2023-07-13T04:01:10;100141.60;;;24.00
76898;BMP180;65856;52.178;21.176;2023-07-13T04:03:36;100145.60;;;24.30
76898;BMP180;65856;52.178;21.176;2023-07-13T04:06:05;100146.40;;;24.30
76898;BMP180;65856;52.178;21.176;2023-07-13T04:08:36;100151.00;;;24.20
76898;BMP180;65856;52.178;21.176;2023-07-13T04:11:04;100158.00;;;24.10
76898;BMP180;65856;52.178;21.176;2023-07-13T04:13:30;100162.80;;;24.10
76898;BMP180;65856;52.178;21.176;2023-07-13T04:15:56;100160.60;;;24.10
76898;BMP180;65856;52.178;21.176;2023-07-13T04:18:21;100169.20;;;24.20
76898;BMP180;65856;52.178;21.176;2023-07-13T04:20:49;100174.80;;;24.30
76898;BMP180;65856;52.178;21.176;2023-07-13T04:23:16;100175.80;;;24.30
76898;BMP180;65856;52.178;21.176;2023-07-13T04:25:47;100188.80;;;24.30
76898;BMP180;65856;52.178;21.176;2023-07-13T04:28:21;100190.40;;;24.30
76898;BMP180;65856;52.178;21.176;2023-07-13T04:30:49;100191.20;;;24.30
76898;BMP180;65856;52.178;21.176;2023-07-13T04:33:15;100199.80;;;24.36
76898;BMP180;65856;52.178;21.176;2023-07-13T04:35:43;100203.00;;;24.50
76898;BMP180;65856;52.178;21.176;2023-07-13T04:38:09;100202.80;;;24.50
76898;BMP180;65856;52.178;21.176;2023-07-13T04:40:37;100199.40;;;24.60
76898;BMP180;65856;52.178;21.176;2023-07-13T04:43:03;100202.60;;;24.56
76898;BMP180;65856;52.178;21.176;2023-07-13T04:45:29;100203.80;;;24.50
76898;BMP180;65856;52.178;21.176;2023-07-13T04:47:56;100210.60;;;24.40
76898;BMP180;65856;52.178;21.176;2023-07-13T04:50:21;100218.40;;;24.20
76898;BMP180;65856;52.178;21.176;2023-07-13T04:52:51;100219.40;;;24.00
76898;BMP180;65856;52.178;21.176;2023-07-13T04:55:18;100225.60;;;23.90
76898;BMP180;65856;52.178;21.176;2023-07-13T04:57:46;100233.00;;;23.90
76898;BMP180;65856;52.178;21.176;2023-07-13T05:00:13;100229.20;;;23.80
76898;BMP180;65856;52.178;21.176;2023-07-13T05:02:44;100224.20;;;23.70
76898;BMP180;65856;52.178;21.176;2023-07-13T05:05:13;100219.40;;;23.60
76898;BMP180;65856;52.178;21.176;2023-07-13T05:07:39;100217.60;;;23.50
76898;BMP180;65856;52.178;21.176;2023-07-13T05:10:05;100215.20;;;23.40
76898;BMP180;65856;52.178;21.176;2023-07-13T05:12:31;100216.80;;;23.40
76898;BMP180;65856;52.178;21.176;2023-07-13T05:14:56;100222.60;;;23.50
76898;BMP180;65856;52.178;21.176;2023-07-13T05:17:22;100229.80;;;23.50
76898;BMP180;65856;52.178;21.176;2023-07-13T05:19:47;100236.20;;;23.50
76898;BMP180;65856;52.178;21.176;2023-07-13T05:22:13;100235.60;;;23.40
76898;BMP180;65856;52.178;21.176;2023-07-13T05:24:38;100235.60;;;23.32
76898;BMP180;65856;52.178;21.176;2023-07-13T05:27:04;100237.00;;;23.40
76898;BMP180;65856;52.178;21.176;2023-07-13T05:29:30;100239.20;;;23.40
76898;BMP180;65856;52.178;21.176;2023-07-13T05:31:56;100240.00;;;23.40
76898;BMP180;65856;52.178;21.176;2023-07-13T05:34:22;100252.00;;;23.40
76898;BMP180;65856;52.178;21.176;2023-07-13T05:36:48;100254.60;;;23.40
76898;BMP180;65856;52.178;21.176;2023-07-13T05:39:15;100255.20;;;23.40
76898;BMP180;65856;52.178;21.176;2023-07-13T05:41:41;100260.00;;;23.40
76898;BMP180;65856;52.178;21.176;2023-07-13T05:44:07;100261.80;;;23.40
76898;BMP180;65856;52.178;21.176;2023-07-13T05:46:32;100266.00;;;23.40
76898;BMP180;65856;52.178;21.176;2023-07-13T05:48:58;100268.80;;;23.50
76898;BMP180;65856;52.178;21.176;2023-07-13T05:51:23;100270.40;;;23.60
76898;BMP180;65856;52.178;21.176;2023-07-13T05:53:48;100269.00;;;23.62
76898;BMP180;65856;52.178;21.176;2023-07-13T05:56:14;100259.80;;;23.70
76898;BMP180;65856;52.178;21.176;2023-07-13T05:58:39;100262.20;;;23.80
76898;BMP180;65856;52.178;21.176;2023-07-13T06:01:13;100267.60;;;23.90
76898;BMP180;65856;52.178;21.176;2023-07-13T06:03:40;100259.20;;;24.04
76898;BMP180;65856;52.178;21.176;2023-07-13T06:06:08;100261.40;;;24.10
76898;BMP180;65856;52.178;21.176;2023-07-13T06:08:35;100260.20;;;24.18
76898;BMP180;65856;52.178;21.176;2023-07-13T06:11:05;100257.60;;;24.20
76898;BMP180;65856;52.178;21.176;2023-07-13T06:13:32;100253.20;;;24.20
76898;BMP180;65856;52.178;21.176;2023-07-13T06:16:03;100249.00;;;24.30
76898;BMP180;65856;52.178;21.176;2023-07-13T06:18:33;100249.40;;;24.50
76898;BMP180;65856;52.178;21.176;2023-07-13T06:21:00;100250.60;;;24.50
76898;BMP180;65856;52.178;21.176;2023-07-13T06:23:26;100250.00;;;24.60
76898;BMP180;65856;52.178;21.176;2023-07-13T06:25:52;100251.40;;;24.60
76898;BMP180;65856;52.178;21.176;2023-07-13T06:28:18;100254.80;;;24.60
76898;BMP180;65856;52.178;21.176;2023-07-13T06:30:43;100252.60;;;24.60
76898;BMP180;65856;52.178;21.176;2023-07-13T06:33:09;100251.60;;;24.60
76898;BMP180;65856;52.178;21.176;2023-07-13T06:35:34;100259.00;;;24.60
76898;BMP180;65856;52.178;21.176;2023-07-13T06:38:01;100250.20;;;24.60
76898;BMP180;65856;52.178;21.176;2023-07-13T06:40:27;100246.40;;;24.70
76898;BMP180;65856;52.178;21.176;2023-07-13T06:42:54;100238.00;;;25.00
76898;BMP180;65856;52.178;21.176;2023-07-13T06:45:19;100231.40;;;25.30
76898;BMP180;65856;52.178;21.176;2023-07-13T06:47:45;100231.00;;;25.40
76898;BMP180;65856;52.178;21.176;2023-07-13T06:50:10;100230.20;;;25.50
76898;BMP180;65856;52.178;21.176;2023-07-13T06:52:36;100232.20;;;25.50
76898;BMP180;65856;52.178;21.176;2023-07-13T06:55:02;100231.40;;;25.70
76898;BMP180;65856;52.178;21.176;2023-07-13T06:57:28;100231.00;;;25.90
76898;BMP180;65856;52.178;21.176;2023-07-13T06:59:53;100235.60;;;25.90
76898;BMP180;65856;52.178;21.176;2023-07-13T07:02:19;100236.80;;;25.92
76898;BMP180;65856;52.178;21.176;2023-07-13T07:04:44;100239.80;;;25.90
76898;BMP180;65856;52.178;21.176;2023-07-13T07:07:10;100231.20;;;25.90
76898;BMP180;65856;52.178;21.176;2023-07-13T07:09:35;100229.00;;;26.00
76898;BMP180;65856;52.178;21.176;2023-07-13T07:12:02;100232.20;;;26.22
76898;BMP180;65856;52.178;21.176;2023-07-13T07:14:29;100233.80;;;26.40
76898;BMP180;65856;52.178;21.176;2023-07-13T07:16:55;100237.40;;;26.70
76898;BMP180;65856;52.178;21.176;2023-07-13T07:19:23;100243.40;;;26.90
76898;BMP180;65856;52.178;21.176;2023-07-13T07:21:49;100246.20;;;27.00
76898;BMP180;65856;52.178;21.176;2023-07-13T07:24:14;100238.60;;;27.24
76898;BMP180;65856;52.178;21.176;2023-07-13T07:26:41;100242.20;;;27.46
76898;BMP180;65856;52.178;21.176;2023-07-13T07:29:06;100245.20;;;27.66
76898;BMP180;65856;52.178;21.176;2023-07-13T07:31:32;100243.60;;;27.86
76898;BMP180;65856;52.178;21.176;2023-07-13T07:33:57;100247.80;;;28.12
76898;BMP180;65856;52.178;21.176;2023-07-13T07:36:23;100252.00;;;28.30
76898;BMP180;65856;52.178;21.176;2023-07-13T07:38:48;100246.40;;;28.50
76898;BMP180;65856;52.178;21.176;2023-07-13T07:41:14;100247.40;;;28.60
76898;BMP180;65856;52.178;21.176;2023-07-13T07:43:39;100248.80;;;28.78
76898;BMP180;65856;52.178;21.176;2023-07-13T07:46:05;100252.80;;;28.90
76898;BMP180;65856;52.178;21.176;2023-07-13T07:48:32;100253.20;;;28.90
76898;BMP180;65856;52.178;21.176;2023-07-13T07:50:57;100255.20;;;28.90
76898;BMP180;65856;52.178;21.176;2023-07-13T07:53:23;100258.80;;;29.06
76898;BMP180;65856;52.178;21.176;2023-07-13T07:55:48;100255.00;;;29.20
76898;BMP180;65856;52.178;21.176;2023-07-13T07:58:16;100252.60;;;29.40
76898;BMP180;65856;52.178;21.176;2023-07-13T08:00:41;100258.40;;;29.60
76898;BMP180;65856;52.178;21.176;2023-07-13T08:03:07;100254.40;;;29.80
76898;BMP180;65856;52.178;21.176;2023-07-13T08:05:36;100260.00;;;29.96
76898;BMP180;65856;52.178;21.176;2023-07-13T08:08:03;100261.20;;;30.10
76898;BMP180;65856;52.178;21.176;2023-07-13T08:10:29;100265.00;;;30.42
76898;BMP180;65856;52.178;21.176;2023-07-13T08:12:54;100265.40;;;30.70
76898;BMP180;65856;52.178;21.176;2023-07-13T08:15:20;100254.80;;;30.86
76898;BMP180;65856;52.178;21.176;2023-07-13T08:17:48;100264.80;;;30.90
76898;BMP180;65856;52.178;21.176;2023-07-13T08:20:14;100259.40;;;30.70
76898;BMP180;65856;52.178;21.176;2023-07-13T08:22:40;100258.60;;;30.60
76898;BMP180;65856;52.178;21.176;2023-07-13T08:25:07;100257.00;;;30.60
76898;BMP180;65856;52.178;21.176;2023-07-13T08:27:33;100262.20;;;30.70
76898;BMP180;65856;52.178;21.176;2023-07-13T08:29:58;100258.00;;;30.70
76898;BMP180;65856;52.178;21.176;2023-07-13T08:32:24;100259.60;;;30.90
76898;BMP180;65856;52.178;21.176;2023-07-13T08:34:50;100259.20;;;30.90
76898;BMP180;65856;52.178;21.176;2023-07-13T08:37:17;100258.60;;;30.80
76898;BMP180;65856;52.178;21.176;2023-07-13T08:39:43;100256.40;;;30.70
76898;BMP180;65856;52.178;21.176;2023-07-13T08:48:46;100252.80;;;30.50
76898;BMP180;65856;52.178;21.176;2023-07-13T08:51:45;100257.40;;;30.60
76898;BMP180;65856;52.178;21.176;2023-07-13T08:54:38;100258.00;;;30.70
76898;BMP180;65856;52.178;21.176;2023-07-13T08:57:19;100257.00;;;30.80
76898;BMP180;65856;52.178;21.176;2023-07-13T08:59:48;100260.60;;;30.90
76898;BMP180;65856;52.178;21.176;2023-07-13T09:05:31;100276.20;;;31.02
76898;BMP180;65856;52.178;21.176;2023-07-13T09:08:27;100267.40;;;30.90
76898;BMP180;65856;52.178;21.176;2023-07-13T09:14:34;100269.00;;;30.52
76898;BMP180;65856;52.178;21.176;2023-07-13T09:17:16;100271.00;;;30.60
76898;BMP180;65856;52.178;21.176;2023-07-13T09:20:04;100272.40;;;30.70
76898;BMP180;65856;52.178;21.176;2023-07-13T09:22:37;100272.40;;;30.56
76898;BMP180;65856;52.178;21.176;2023-07-13T09:28:10;100266.60;;;30.50
76898;BMP180;65856;52.178;21.176;2023-07-13T09:30:49;100259.00;;;30.60
76898;BMP180;65856;52.178;21.176;2023-07-13T09:33:29;100253.60;;;30.70
76898;BMP180;65856;52.178;21.176;2023-07-13T09:35:59;100245.80;;;30.70
76898;BMP180;65856;52.178;21.176;2023-07-13T09:38:29;100247.00;;;30.80
76898;BMP180;65856;52.178;21.176;2023-07-13T09:41:31;100245.40;;;30.90
76898;BMP180;65856;52.178;21.176;2023-07-13T09:44:16;100246.40;;;30.88
76898;BMP180;65856;52.178;21.176;2023-07-13T09:46:54;100249.00;;;30.88
76898;BMP180;65856;52.178;21.176;2023-07-13T09:49:29;100241.60;;;30.80
76898;BMP180;65856;52.178;21.176;2023-07-13T09:52:06;100232.80;;;30.86
76898;BMP180;65856;52.178;21.176;2023-07-13T09:54:36;100232.60;;;31.02
76898;BMP180;65856;52.178;21.176;2023-07-13T09:57:12;100231.00;;;31.20
76898;BMP180;65856;52.178;21.176;2023-07-13T09:59:45;100234.40;;;31.20
76898;BMP180;65856;52.178;21.176;2023-07-13T10:02:33;100248.60;;;31.10
76898;BMP180;65856;52.178;21.176;2023-07-13T10:05:13;100246.00;;;30.62
76898;BMP180;65856;52.178;21.176;2023-07-13T10:07:44;100243.00;;;30.20
76898;BMP180;65856;52.178;21.176;2023-07-13T10:10:17;100238.80;;;30.00
76898;BMP180;65856;52.178;21.176;2023-07-13T10:12:47;100234.20;;;29.90
76898;BMP180;65856;52.178;21.176;2023-07-13T10:15:23;100223.20;;;29.60
76898;BMP180;65856;52.178;21.176;2023-07-13T10:17:55;100221.60;;;29.34
76898;BMP180;65856;52.178;21.176;2023-07-13T10:20:24;100228.20;;;29.10
76898;BMP180;65856;52.178;21.176;2023-07-13T10:23:00;100222.80;;;28.90
76898;BMP180;65856;52.178;21.176;2023-07-13T10:25:33;100220.60;;;28.60
76898;BMP180;65856;52.178;21.176;2023-07-13T10:28:28;100217.40;;;28.30
76898;BMP180;65856;52.178;21.176;2023-07-13T10:30:58;100210.00;;;28.10
76898;BMP180;65856;52.178;21.176;2023-07-13T10:33:25;100214.60;;;27.96
76898;BMP180;65856;52.178;21.176;2023-07-13T10:39:06;100209.20;;;27.60
76898;BMP180;65856;52.178;21.176;2023-07-13T10:41:40;100201.60;;;27.48
76898;BMP180;65856;52.178;21.176;2023-07-13T10:44:19;100201.60;;;27.20
76898;BMP180;65856;52.178;21.176;2023-07-13T10:46:56;100205.80;;;27.10
76898;BMP180;65856;52.178;21.176;2023-07-13T10:49:28;100220.00;;;27.10
76898;BMP180;65856;52.178;21.176;2023-07-13T10:51:55;100215.80;;;27.00
76898;BMP180;65856;52.178;21.176;2023-07-13T10:54:32;100211.00;;;26.80
76898;BMP180;65856;52.178;21.176;2023-07-13T10:57:18;100211.40;;;26.62
76898;BMP180;65856;52.178;21.176;2023-07-13T11:00:16;100208.80;;;26.40
76898;BMP180;65856;52.178;21.176;2023-07-13T11:02:43;100208.80;;;26.20
76898;BMP180;65856;52.178;21.176;2023-07-13T11:05:30;100212.80;;;25.94
76898;BMP180;65856;52.178;21.176;2023-07-13T11:08:31;100223.60;;;25.70
76898;BMP180;65856;52.178;21.176;2023-07-13T11:10:59;100239.20;;;25.60
76898;BMP180;65856;52.178;21.176;2023-07-13T11:21:32;100322.00;;;25.10
76898;BMP180;65856;52.178;21.176;2023-07-13T11:24:16;100328.40;;;24.72
76898;BMP180;65856;52.178;21.176;2023-07-13T11:26:50;100320.00;;;24.40
76898;BMP180;65856;52.178;21.176;2023-07-13T11:31:51;100346.60;;;24.10
76898;BMP180;65856;52.178;21.176;2023-07-13T11:34:27;100346.60;;;24.00
76898;BMP180;65856;52.178;21.176;2023-07-13T11:36:57;100348.20;;;23.80
76898;BMP180;65856;52.178;21.176;2023-07-13T11:39:34;100340.00;;;23.70
76898;BMP180;65856;52.178;21.176;2023-07-13T11:42:05;100350.40;;;23.60
76898;BMP180;65856;52.178;21.176;2023-07-13T11:44:45;100345.40;;;23.50
76898;BMP180;65856;52.178;21.176;2023-07-13T11:47:19;100341.80;;;23.40
76898;BMP180;65856;52.178;21.176;2023-07-13T11:49:53;100342.40;;;23.30
76898;BMP180;65856;52.178;21.176;2023-07-13T11:52:33;100345.00;;;23.30
76898;BMP180;65856;52.178;21.176;2023-07-13T11:55:14;100355.20;;;23.20
76898;BMP180;65856;52.178;21.176;2023-07-13T11:58:08;100362.60;;;23.12
76898;BMP180;65856;52.178;21.176;2023-07-13T12:00:35;100372.20;;;23.10
76898;BMP180;65856;52.178;21.176;2023-07-13T12:03:05;100380.40;;;23.10
76898;BMP180;65856;52.178;21.176;2023-07-13T12:05:31;100385.00;;;23.10
76898;BMP180;65856;52.178;21.176;2023-07-13T12:07:58;100392.40;;;23.10
76898;BMP180;65856;52.178;21.176;2023-07-13T12:10:29;100399.00;;;23.10
76898;BMP180;65856;52.178;21.176;2023-07-13T12:13:05;100396.00;;;23.10
76898;BMP180;65856;52.178;21.176;2023-07-13T12:15:44;100381.60;;;23.10
76898;BMP180;65856;52.178;21.176;2023-07-13T12:18:16;100376.60;;;23.10
76898;BMP180;65856;52.178;21.176;2023-07-13T12:20:47;100374.60;;;23.00
76898;BMP180;65856;52.178;21.176;2023-07-13T12:23:33;100373.40;;;23.00
76898;BMP180;65856;52.178;21.176;2023-07-13T12:26:03;100368.40;;;23.00
76898;BMP180;65856;52.178;21.176;2023-07-13T12:31:26;100365.20;;;23.00
76898;BMP180;65856;52.178;21.176;2023-07-13T12:34:02;100357.60;;;23.00
76898;BMP180;65856;52.178;21.176;2023-07-13T12:36:36;100354.80;;;23.00
76898;BMP180;65856;52.178;21.176;2023-07-13T12:39:14;100348.80;;;22.92
76898;BMP180;65856;52.178;21.176;2023-07-13T12:41:42;100349.00;;;22.80
76898;BMP180;65856;52.178;21.176;2023-07-13T12:44:31;100347.20;;;22.60
76898;BMP180;65856;52.178;21.176;2023-07-13T12:47:06;100337.60;;;22.50
76898;BMP180;65856;52.178;21.176;2023-07-13T12:49:42;100334.40;;;22.50
76898;BMP180;65856;52.178;21.176;2023-07-13T12:52:22;100328.60;;;22.40
76898;BMP180;65856;52.178;21.176;2023-07-13T12:54:55;100334.60;;;22.40
76898;BMP180;65856;52.178;21.176;2023-07-13T12:57:23;100326.40;;;22.40
76898;BMP180;65856;52.178;21.176;2023-07-13T12:59:53;100317.40;;;22.40
76898;BMP180;65856;52.178;21.176;2023-07-13T13:02:32;100317.40;;;22.50
76898;BMP180;65856;52.178;21.176;2023-07-13T13:05:01;100314.80;;;22.50
76898;BMP180;65856;52.178;21.176;2023-07-13T13:07:28;100318.20;;;22.60
76898;BMP180;65856;52.178;21.176;2023-07-13T13:09:54;100316.20;;;22.52
76898;BMP180;65856;52.178;21.176;2023-07-13T13:12:22;100322.80;;;22.50
76898;BMP180;65856;52.178;21.176;2023-07-13T13:14:51;100325.40;;;22.60
76898;BMP180;65856;52.178;21.176;2023-07-13T13:17:22;100331.60;;;22.60
76898;BMP180;65856;52.178;21.176;2023-07-13T13:19:51;100335.00;;;22.60
76898;BMP180;65856;52.178;21.176;2023-07-13T13:22:20;100339.20;;;22.68
76898;BMP180;65856;52.178;21.176;2023-07-13T13:24:46;100351.20;;;22.70
76898;BMP180;65856;52.178;21.176;2023-07-13T13:27:21;100356.20;;;22.68
76898;BMP180;65856;52.178;21.176;2023-07-13T13:29:50;100367.40;;;22.70
76898;BMP180;65856;52.178;21.176;2023-07-13T13:32:19;100370.00;;;22.60
76898;BMP180;65856;52.178;21.176;2023-07-13T13:34:45;100372.80;;;22.60
76898;BMP180;65856;52.178;21.176;2023-07-13T13:37:21;100380.80;;;22.60
76898;BMP180;65856;52.178;21.176;2023-07-13T13:39:49;100377.60;;;22.60
76898;BMP180;65856;52.178;21.176;2023-07-13T13:42:15;100380.40;;;22.60
76898;BMP180;65856;52.178;21.176;2023-07-13T13:44:41;100380.40;;;22.60
76898;BMP180;65856;52.178;21.176;2023-07-13T13:47:21;100379.60;;;22.60
76898;BMP180;65856;52.178;21.176;2023-07-13T13:49:58;100378.80;;;22.60
76898;BMP180;65856;52.178;21.176;2023-07-13T13:52:24;100372.40;;;22.60
76898;BMP180;65856;52.178;21.176;2023-07-13T13:54:51;100373.40;;;22.60
76898;BMP180;65856;52.178;21.176;2023-07-13T13:57:24;100379.40;;;22.70
76898;BMP180;65856;52.178;21.176;2023-07-13T13:59:53;100376.60;;;22.70
76898;BMP180;65856;52.178;21.176;2023-07-13T14:02:29;100373.60;;;22.60
76898;BMP180;65856;52.178;21.176;2023-07-13T14:05:00;100368.60;;;22.60
76898;BMP180;65856;52.178;21.176;2023-07-13T14:07:27;100365.00;;;22.60
76898;BMP180;65856;52.178;21.176;2023-07-13T14:09:57;100358.20;;;22.50
76898;BMP180;65856;52.178;21.176;2023-07-13T14:12:24;100360.00;;;22.50
76898;BMP180;65856;52.178;21.176;2023-07-13T14:14:53;100357.60;;;22.50
76898;BMP180;65856;52.178;21.176;2023-07-13T14:17:23;100359.40;;;22.60
76898;BMP180;65856;52.178;21.176;2023-07-13T14:19:51;100361.20;;;22.60
76898;BMP180;65856;52.178;21.176;2023-07-13T14:22:23;100359.00;;;22.60
76898;BMP180;65856;52.178;21.176;2023-07-13T14:24:53;100355.40;;;22.60
76898;BMP180;65856;52.178;21.176;2023-07-13T14:27:20;100351.40;;;22.60
76898;BMP180;65856;52.178;21.176;2023-07-13T14:29:46;100348.40;;;22.60
76898;BMP180;65856;52.178;21.176;2023-07-13T14:32:12;100353.00;;;22.60